• Join FlightAware (Why Join?)
  • Login
  • US Flag 
08:53AM EDT


 

Airport Tracker/Info


-or-


 

Live Flight TrackerFlight Track Log ✈ SWA868 ✈ 26-Apr-2013 ✈ KBWI - KBNA

Flight Track Log - Related Links

Times and Time Zones

All times are in EDT time to prevent confusion due to time zone crossing. See the SWA868 flight status page for this flight to view local times or setup timezone preferences in your user account.

Time Position Orientation Groundspeed Altitude Reporting Facility
EDT Latitude Longitude Course Direction KTS MPH feet Rate Location/Type
04:22PM 39.1833 -76.7667 284° West 197 227 2,800  Level Potomac TRACON
04:23PM 39.2000 -76.8500 284° West 223 257 6,000 3,240 Climbing Potomac TRACON
04:24PM 39.2167 -76.9333 284° West 259 298 9,700 2,940 Climbing Potomac TRACON
04:26PM 39.2122 -77.1211 268° West 291 335 14,700 2,760 Climbing Washington Center
04:27PM 39.1483 -77.2108 227° Southwest 312 359 17,800 2,640 Climbing Washington Center
04:28PM 39.0619 -77.2839 213° Southwest 322 371 20,000 2,220 Climbing Washington Center
04:29PM 38.9939 -77.3836 229° Southwest 351 404 22,300 2,340 Climbing Washington Center
04:30PM 38.9686 -77.5325 258° West 368 423 24,800 2,280 Climbing Washington Center
04:31PM 38.9433 -77.6681 257° West 386 444 26,800 2,160 Climbing Washington Center
04:32PM 38.9222 -77.8117 259° West 401 461 29,100 2,280 Climbing Washington Center
04:33PM 38.9011 -77.9364 258° West 409 471 31,500 2,640 Climbing Washington Center
04:34PM 38.8778 -78.0608 256° West 404 465 34,500 2,340 Climbing Washington Center
04:35PM 38.8583 -78.1803 258° West 368 423 36,200 1,080 Climbing Washington Center
04:36PM 38.8517 -78.3053 266° West 355 409 36,700 660 Climbing Washington Center
04:37PM 38.8506 -78.4331 269° West 349 402 37,600 600 Climbing Washington Center
04:38PM 38.8497 -78.5636 270° West 355 409 38,000 180 Climbing Washington Center
04:39PM 38.8506 -78.6917 271° West 365 420 38,000  Level Washington Center
04:40PM 38.8472 -78.8194 268° West 365 420 38,000  Level Washington Center
04:41PM 38.8456 -78.9500 269° West 365 420 38,000  Level Washington Center
04:42PM 38.8419 -79.0778 268° West 365 420 38,000  Level Washington Center
04:43PM 38.8403 -79.2058 269° West 365 420 38,000  Level Washington Center
04:44PM 38.8197 -79.3325 258° West 365 420 38,000  Level Washington Center
04:45PM 38.7947 -79.4619 256° West 370 426 38,000  Level Washington Center
04:46PM 38.7736 -79.5967 259° West 375 432 38,000  Level Washington Center
04:47PM 38.7506 -79.7231 257° West 381 438 38,000  Level Washington Center
04:48PM 38.7250 -79.8575 256° West 370 426 38,000  Level Washington Center
04:50PM 38.6719 -80.1150 255° West 361 415 38,000  Level Indianapolis Center
04:51PM 38.6503 -80.2375 257° West 356 410 38,000  Level Indianapolis Center
04:52PM 38.6253 -80.3619 256° West 358 412 38,000  Level Indianapolis Center
04:53PM 38.6039 -80.4828 257° West 349 402 38,000  Level Indianapolis Center
04:54PM 38.5806 -80.6056 256° West 353 406 38,000  Level Indianapolis Center
04:56PM 38.5522 -80.7506 256° West 350 403 38,000  Level Indianapolis Center
04:57PM 38.5289 -80.8692 256° West 345 397 38,000  Level Indianapolis Center
04:58PM 38.5061 -80.9881 256° West 343 395 38,000  Level Indianapolis Center
04:59PM 38.4819 -81.1067 255° West 343 395 38,000  Level Indianapolis Center
05:00PM 38.4592 -81.2239 256° West 339 390 38,000  Level Indianapolis Center
05:01PM 38.4358 -81.3408 256° West 337 388 38,000  Level Indianapolis Center
05:02PM 38.4119 -81.4592 256° West 341 392 38,000  Level Indianapolis Center
05:03PM 38.3892 -81.5778 256° West 340 391 38,000  Level Indianapolis Center
05:04PM 38.3600 -81.7186 255° West 340 391 38,000  Level Indianapolis Center
05:05PM 38.3236 -81.8339 248° West 353 406 38,000  Level Indianapolis Center
05:06PM 38.2758 -81.9472 242° Southwest 362 417 38,000  Level Indianapolis Center
05:07PM 38.2283 -82.0619 242° Southwest 365 420 38,000  Level Indianapolis Center
05:08PM 38.1800 -82.1750 241° Southwest 364 419 38,000  Level Indianapolis Center
05:09PM 38.1322 -82.2914 242° Southwest 369 425 38,000  Level Indianapolis Center
05:10PM 38.0775 -82.4181 241° Southwest 360 414 38,000  Level Indianapolis Center
05:11PM 38.0297 -82.5325 242° Southwest 364 419 38,000  Level Indianapolis Center
05:12PM 37.9819 -82.6433 241° Southwest 359 413 38,000  Level Indianapolis Center
05:13PM 37.9347 -82.7542 242° Southwest 358 412 38,000  Level Indianapolis Center
05:14PM 37.8803 -82.8808 241° Southwest 353 406 38,000  Level Indianapolis Center
05:15PM 37.8333 -82.9900 241° Southwest 352 405 38,000  Level Indianapolis Center
05:16PM 37.7867 -83.0986 241° Southwest 353 406 38,000  Level Indianapolis Center
05:17PM 37.7392 -83.2075 241° Southwest 353 406 38,000 -180 Level Indianapolis Center
05:18PM 37.6922 -83.3164 241° Southwest 353 406 37,700 -780 Descending Indianapolis Center
05:19PM 37.6361 -83.4436 241° Southwest 356 410 36,500 -1,020 Descending Indianapolis Center
05:20PM 37.5872 -83.5567 241° Southwest 368 423 35,600 -960 Descending Indianapolis Center
05:21PM 37.5364 -83.6711 241° Southwest 374 430 34,600 -780 Descending Indianapolis Center
05:22PM 37.4864 -83.7825 241° Southwest 369 425 34,000 -720 Descending Indianapolis Center
05:23PM 37.4369 -83.8944 241° Southwest 367 422 33,200 -1,020 Descending Indianapolis Center
05:24PM 37.3794 -84.0236 241° Southwest 364 419 32,000 -1,080 Descending Indianapolis Center
05:26PM 37.3300 -84.1336 241° Southwest 362 417 31,000 -540 Descending Indianapolis Center
05:27PM 37.2811 -84.2425 241° Southwest 360 414 31,000  Level Indianapolis Center
05:28PM 37.2333 -84.3514 241° Southwest 358 412 31,000 -60 Level Indianapolis Center
05:29PM 37.1853 -84.4592 241° Southwest 355 409 30,900 -660 Descending Indianapolis Center
05:30PM 37.1272 -84.5853 240° Southwest 357 411 29,700 -1,080 Descending Indianapolis Center
05:31PM 37.0783 -84.6925 240° Southwest 356 410 28,700 -960 Descending Indianapolis Center
05:32PM 37.0325 -84.7939 241° Southwest 356 410 27,800 -960 Descending Indianapolis Center
05:33PM 36.9847 -84.8978 240° Southwest 349 402 26,800 -1,080 Descending Indianapolis Center
05:34PM 36.9281 -85.0231 241° Southwest 345 397 25,600 -1,080 Descending Indianapolis Center
05:35PM 36.8806 -85.1250 240° Southwest 342 394 24,600 -1,020 Descending Indianapolis Center
05:36PM 36.8328 -85.2250 239° Southwest 338 389 23,600 -960 Descending Indianapolis Center
05:37PM 36.7853 -85.3278 240° Southwest 342 394 22,700 -960 Descending Indianapolis Center
05:37PM 36.7553 -85.3875 238° Southwest 353 406 22,100 -480 Descending Memphis Center
05:38PM 36.7014 -85.5047 240° Southwest 353 406 22,000 -120 Descending Memphis Center
05:39PM 36.6569 -85.5953 239° Southwest 353 406 21,900 -660 Descending Memphis Center
05:40PM 36.6128 -85.6908 240° Southwest 341 392 20,700 -1,500 Descending Memphis Center
05:41PM 36.5703 -85.7811 240° Southwest 328 377 19,000 600 Descending Memphis Center
05:42PM 36.5258 -85.8792 241° Southwest 310 357 22,000 -1,560 Climbing Memphis Center
05:43PM 36.4831 -85.9669 239° Southwest 295 339 15,900 -3,780 Descending Memphis Center
05:44PM 36.4442 -86.0464 239° Southwest 301 346 14,500 -1,560 Descending Memphis Center
05:45PM 36.4036 -86.1361 241° Southwest 301 346 12,800 -1,740 Descending Memphis Center
05:46PM 36.3586 -86.2236 237° Southwest 301 346 11,100 -1,440 Descending Memphis Center
05:47PM 36.3194 -86.3028 238° Southwest 288 331 10,000 -1,140 Descending Memphis Center
05:48PM 36.2844 -86.3767 240° Southwest 265 305 8,900 -1,200 Descending Memphis Center
05:49PM 36.2472 -86.4556 240° Southwest 254 292 7,600 -1,320 Descending Memphis Center
05:50PM 36.2036 -86.5272 233° Southwest 259 298 6,300 -1,080 Descending Memphis Center
05:51PM 36.1397 -86.5481 195° South 242 278 5,500 -720 Descending Memphis Center
05:52PM 36.0819 -86.5714 198° South 235 270 4,900 -840 Descending Memphis Center
05:53PM 36.0283 -86.5944 199° South 217 250 3,900 -1,020 Descending Memphis Center
05:54PM 35.9772 -86.6197 202° Southwest 207 238 2,900 -720 Descending Memphis Center
05:55PM 35.9892 -86.6731 285° West 134 154 2,500 -480 Descending Memphis Center
05:57PM 36.0667 -86.6833 354° North 127 146 1,600 -600 Descending Nashville TRACON
05:59PM 36.1000 -86.6667 22° Northeast 129 148 800 -780 Descending Nashville TRACON
06:01PM 36.1167 -86.6667 North  Level FlightAware Approximate
06:08PM 36.1245 -86.6782 North  Level Estimated
06:09PM 36.1245 -86.6782 North  Level Estimated
06:10PM 36.1245 -86.6782 North  Level Estimated
06:11PM 36.1245 -86.6782 North  Level Estimated
06:12PM 36.1245 -86.6782 North  Level Estimated
06:13PM 36.1245 -86.6782 North  Level Estimated
06:14PM 36.1245 -86.6782 North  Level Estimated